sensor_id;sensor_type;location;lat;lon;timestamp;P1;durP1;ratioP1;P2;durP2;ratioP2
21987;SDS011;11158;53.404;-1.510;2024-03-17T00:01:45;29.80;;;11.35;;
21987;SDS011;11158;53.404;-1.510;2024-03-17T00:04:10;24.33;;;11.85;;
21987;SDS011;11158;53.404;-1.510;2024-03-17T00:06:36;24.10;;;12.13;;
21987;SDS011;11158;53.404;-1.510;2024-03-17T00:09:02;28.25;;;13.20;;
21987;SDS011;11158;53.404;-1.510;2024-03-17T00:11:34;30.13;;;13.25;;
21987;SDS011;11158;53.404;-1.510;2024-03-17T00:14:00;30.50;;;14.40;;
21987;SDS011;11158;53.404;-1.510;2024-03-17T00:16:28;31.48;;;13.65;;
21987;SDS011;11158;53.404;-1.510;2024-03-17T00:18:54;30.20;;;14.02;;
21987;SDS011;11158;53.404;-1.510;2024-03-17T00:21:20;34.22;;;14.68;;
21987;SDS011;11158;53.404;-1.510;2024-03-17T00:23:49;34.22;;;14.80;;
21987;SDS011;11158;53.404;-1.510;2024-03-17T00:26:14;31.02;;;14.40;;
21987;SDS011;11158;53.404;-1.510;2024-03-17T00:28:40;32.05;;;13.45;;
21987;SDS011;11158;53.404;-1.510;2024-03-17T00:31:06;31.15;;;14.23;;
21987;SDS011;11158;53.404;-1.510;2024-03-17T00:33:34;34.80;;;15.32;;
21987;SDS011;11158;53.404;-1.510;2024-03-17T00:36:00;36.97;;;15.45;;
21987;SDS011;11158;53.404;-1.510;2024-03-17T00:38:26;34.00;;;14.27;;
21987;SDS011;11158;53.404;-1.510;2024-03-17T00:40:51;43.00;;;16.05;;
21987;SDS011;11158;53.404;-1.510;2024-03-17T00:43:16;35.80;;;14.77;;
21987;SDS011;11158;53.404;-1.510;2024-03-17T00:45:42;42.30;;;15.57;;
21987;SDS011;11158;53.404;-1.510;2024-03-17T00:48:07;37.28;;;17.10;;
21987;SDS011;11158;53.404;-1.510;2024-03-17T00:50:32;34.95;;;14.32;;
21987;SDS011;11158;53.404;-1.510;2024-03-17T00:52:58;41.72;;;15.15;;
21987;SDS011;11158;53.404;-1.510;2024-03-17T00:55:24;37.92;;;15.82;;
21987;SDS011;11158;53.404;-1.510;2024-03-17T00:57:49;37.83;;;14.80;;
21987;SDS011;11158;53.404;-1.510;2024-03-17T01:00:15;33.10;;;14.75;;
21987;SDS011;11158;53.404;-1.510;2024-03-17T01:02:41;36.60;;;15.43;;
21987;SDS011;11158;53.404;-1.510;2024-03-17T01:05:06;39.25;;;16.83;;
21987;SDS011;11158;53.404;-1.510;2024-03-17T01:07:33;39.80;;;16.88;;
21987;SDS011;11158;53.404;-1.510;2024-03-17T01:09:59;42.60;;;16.33;;
21987;SDS011;11158;53.404;-1.510;2024-03-17T01:12:25;37.78;;;16.40;;
21987;SDS011;11158;53.404;-1.510;2024-03-17T01:14:50;40.08;;;15.80;;
21987;SDS011;11158;53.404;-1.510;2024-03-17T01:17:16;35.92;;;15.75;;
21987;SDS011;11158;53.404;-1.510;2024-03-17T01:19:44;43.28;;;15.13;;
21987;SDS011;11158;53.404;-1.510;2024-03-17T01:22:09;38.72;;;16.35;;
21987;SDS011;11158;53.404;-1.510;2024-03-17T01:24:34;41.72;;;14.95;;
21987;SDS011;11158;53.404;-1.510;2024-03-17T01:27:00;30.30;;;14.13;;
21987;SDS011;11158;53.404;-1.510;2024-03-17T01:29:26;39.22;;;14.25;;
21987;SDS011;11158;53.404;-1.510;2024-03-17T01:31:52;34.88;;;13.75;;
21987;SDS011;11158;53.404;-1.510;2024-03-17T01:34:18;29.20;;;13.63;;
21987;SDS011;11158;53.404;-1.510;2024-03-17T01:36:44;32.08;;;13.38;;
21987;SDS011;11158;53.404;-1.510;2024-03-17T01:39:09;33.95;;;13.93;;
21987;SDS011;11158;53.404;-1.510;2024-03-17T01:41:36;34.63;;;13.85;;
21987;SDS011;11158;53.404;-1.510;2024-03-17T01:44:01;36.25;;;14.13;;
21987;SDS011;11158;53.404;-1.510;2024-03-17T01:46:27;37.05;;;14.13;;
21987;SDS011;11158;53.404;-1.510;2024-03-17T01:48:52;32.55;;;14.30;;
21987;SDS011;11158;53.404;-1.510;2024-03-17T01:51:18;35.00;;;14.40;;
21987;SDS011;11158;53.404;-1.510;2024-03-17T01:53:44;35.45;;;15.35;;
21987;SDS011;11158;53.404;-1.510;2024-03-17T01:56:11;38.05;;;13.93;;
21987;SDS011;11158;53.404;-1.510;2024-03-17T01:58:37;30.13;;;14.00;;
21987;SDS011;11158;53.404;-1.510;2024-03-17T02:01:02;28.25;;;13.98;;
21987;SDS011;11158;53.404;-1.510;2024-03-17T02:03:31;28.05;;;12.48;;
21987;SDS011;11158;53.404;-1.510;2024-03-17T02:05:57;28.02;;;11.77;;
21987;SDS011;11158;53.404;-1.510;2024-03-17T02:08:24;28.60;;;11.95;;
21987;SDS011;11158;53.404;-1.510;2024-03-17T02:10:53;29.75;;;11.27;;
21987;SDS011;11158;53.404;-1.510;2024-03-17T02:13:19;20.83;;;11.65;;
21987;SDS011;11158;53.404;-1.510;2024-03-17T02:15:46;26.02;;;11.77;;
21987;SDS011;11158;53.404;-1.510;2024-03-17T02:18:12;26.63;;;11.32;;
21987;SDS011;11158;53.404;-1.510;2024-03-17T02:20:37;24.00;;;9.70;;
21987;SDS011;11158;53.404;-1.510;2024-03-17T02:23:23;26.77;;;10.65;;
21987;SDS011;11158;53.404;-1.510;2024-03-17T02:25:51;27.13;;;11.52;;
21987;SDS011;11158;53.404;-1.510;2024-03-17T02:28:17;30.83;;;11.13;;
21987;SDS011;11158;53.404;-1.510;2024-03-17T02:30:43;26.77;;;10.95;;
21987;SDS011;11158;53.404;-1.510;2024-03-17T02:33:08;33.80;;;11.52;;
21987;SDS011;11158;53.404;-1.510;2024-03-17T02:35:33;26.05;;;10.43;;
21987;SDS011;11158;53.404;-1.510;2024-03-17T02:37:59;21.58;;;10.00;;
21987;SDS011;11158;53.404;-1.510;2024-03-17T02:40:24;29.50;;;10.63;;
21987;SDS011;11158;53.404;-1.510;2024-03-17T02:42:50;25.63;;;10.55;;
21987;SDS011;11158;53.404;-1.510;2024-03-17T02:45:15;21.52;;;9.13;;
21987;SDS011;11158;53.404;-1.510;2024-03-17T02:47:41;31.83;;;11.73;;
21987;SDS011;11158;53.404;-1.510;2024-03-17T02:50:07;29.67;;;11.30;;
21987;SDS011;11158;53.404;-1.510;2024-03-17T02:52:34;31.52;;;10.63;;
21987;SDS011;11158;53.404;-1.510;2024-03-17T02:54:59;23.83;;;10.93;;
21987;SDS011;11158;53.404;-1.510;2024-03-17T02:57:25;28.10;;;11.50;;
21987;SDS011;11158;53.404;-1.510;2024-03-17T02:59:54;27.83;;;11.85;;
21987;SDS011;11158;53.404;-1.510;2024-03-17T03:02:20;30.13;;;12.57;;
21987;SDS011;11158;53.404;-1.510;2024-03-17T03:04:45;34.60;;;13.27;;
21987;SDS011;11158;53.404;-1.510;2024-03-17T03:07:11;32.13;;;13.40;;
21987;SDS011;11158;53.404;-1.510;2024-03-17T03:09:36;29.52;;;12.98;;
21987;SDS011;11158;53.404;-1.510;2024-03-17T03:12:02;38.88;;;13.80;;
21987;SDS011;11158;53.404;-1.510;2024-03-17T03:14:28;26.00;;;12.93;;
21987;SDS011;11158;53.404;-1.510;2024-03-17T03:16:53;35.40;;;12.85;;
21987;SDS011;11158;53.404;-1.510;2024-03-17T03:19:19;30.10;;;13.27;;
21987;SDS011;11158;53.404;-1.510;2024-03-17T03:21:44;37.25;;;12.93;;
21987;SDS011;11158;53.404;-1.510;2024-03-17T03:24:10;34.92;;;12.60;;
21987;SDS011;11158;53.404;-1.510;2024-03-17T03:26:37;31.00;;;12.43;;
21987;SDS011;11158;53.404;-1.510;2024-03-17T03:29:03;44.97;;;12.52;;
21987;SDS011;11158;53.404;-1.510;2024-03-17T03:31:30;28.38;;;11.43;;
21987;SDS011;11158;53.404;-1.510;2024-03-17T03:33:58;30.63;;;11.35;;
21987;SDS011;11158;53.404;-1.510;2024-03-17T03:36:26;30.75;;;9.95;;
21987;SDS011;11158;53.404;-1.510;2024-03-17T03:38:52;24.85;;;8.82;;
21987;SDS011;11158;53.404;-1.510;2024-03-17T03:41:18;21.80;;;8.10;;
21987;SDS011;11158;53.404;-1.510;2024-03-17T03:43:44;19.20;;;7.90;;
21987;SDS011;11158;53.404;-1.510;2024-03-17T03:46:11;19.40;;;7.22;;
21987;SDS011;11158;53.404;-1.510;2024-03-17T03:48:37;24.75;;;8.00;;
21987;SDS011;11158;53.404;-1.510;2024-03-17T03:51:06;21.02;;;8.07;;
21987;SDS011;11158;53.404;-1.510;2024-03-17T03:53:32;22.60;;;8.35;;
21987;SDS011;11158;53.404;-1.510;2024-03-17T03:55:59;27.30;;;7.97;;
21987;SDS011;11158;53.404;-1.510;2024-03-17T03:58:27;18.35;;;6.53;;
21987;SDS011;11158;53.404;-1.510;2024-03-17T04:00:54;23.25;;;7.47;;
21987;SDS011;11158;53.404;-1.510;2024-03-17T04:03:20;22.25;;;6.93;;
21987;SDS011;11158;53.404;-1.510;2024-03-17T04:05:45;13.43;;;5.88;;
21987;SDS011;11158;53.404;-1.510;2024-03-17T04:08:11;16.95;;;5.65;;
21987;SDS011;11158;53.404;-1.510;2024-03-17T04:10:36;15.18;;;5.13;;
21987;SDS011;11158;53.404;-1.510;2024-03-17T04:13:01;10.20;;;5.13;;
21987;SDS011;11158;53.404;-1.510;2024-03-17T04:15:28;18.88;;;5.45;;
21987;SDS011;11158;53.404;-1.510;2024-03-17T04:17:53;12.27;;;4.20;;
21987;SDS011;11158;53.404;-1.510;2024-03-17T04:20:19;8.88;;;4.10;;
21987;SDS011;11158;53.404;-1.510;2024-03-17T04:22:44;11.82;;;3.85;;
21987;SDS011;11158;53.404;-1.510;2024-03-17T04:25:10;6.65;;;3.17;;
21987;SDS011;11158;53.404;-1.510;2024-03-17T04:27:38;11.43;;;3.70;;
21987;SDS011;11158;53.404;-1.510;2024-03-17T04:30:05;9.48;;;3.35;;
21987;SDS011;11158;53.404;-1.510;2024-03-17T04:32:32;5.82;;;3.20;;
21987;SDS011;11158;53.404;-1.510;2024-03-17T04:34:58;8.68;;;3.90;;
21987;SDS011;11158;53.404;-1.510;2024-03-17T04:37:23;10.45;;;3.83;;
21987;SDS011;11158;53.404;-1.510;2024-03-17T04:39:49;10.95;;;3.55;;
21987;SDS011;11158;53.404;-1.510;2024-03-17T04:42:16;11.18;;;4.20;;
21987;SDS011;11158;53.404;-1.510;2024-03-17T04:44:43;9.95;;;4.13;;
21987;SDS011;11158;53.404;-1.510;2024-03-17T04:47:09;12.15;;;4.78;;
21987;SDS011;11158;53.404;-1.510;2024-03-17T04:49:35;10.73;;;5.03;;
21987;SDS011;11158;53.404;-1.510;2024-03-17T04:52:02;11.15;;;4.40;;
21987;SDS011;11158;53.404;-1.510;2024-03-17T04:54:27;13.95;;;4.65;;
21987;SDS011;11158;53.404;-1.510;2024-03-17T04:56:53;13.68;;;5.15;;
21987;SDS011;11158;53.404;-1.510;2024-03-17T04:59:18;13.80;;;4.93;;
21987;SDS011;11158;53.404;-1.510;2024-03-17T05:01:44;11.45;;;4.47;;
21987;SDS011;11158;53.404;-1.510;2024-03-17T05:04:09;10.60;;;4.03;;
21987;SDS011;11158;53.404;-1.510;2024-03-17T05:06:35;11.40;;;4.50;;
21987;SDS011;11158;53.404;-1.510;2024-03-17T05:09:01;15.07;;;4.38;;
21987;SDS011;11158;53.404;-1.510;2024-03-17T05:11:29;11.70;;;4.32;;
21987;SDS011;11158;53.404;-1.510;2024-03-17T05:13:55;12.20;;;4.55;;
21987;SDS011;11158;53.404;-1.510;2024-03-17T05:16:22;11.38;;;4.38;;
21987;SDS011;11158;53.404;-1.510;2024-03-17T05:18:49;9.65;;;4.30;;
21987;SDS011;11158;53.404;-1.510;2024-03-17T05:21:14;13.23;;;4.60;;
21987;SDS011;11158;53.404;-1.510;2024-03-17T05:23:40;13.60;;;4.68;;
21987;SDS011;11158;53.404;-1.510;2024-03-17T05:26:05;15.68;;;4.60;;
21987;SDS011;11158;53.404;-1.510;2024-03-17T05:28:31;12.02;;;4.85;;
21987;SDS011;11158;53.404;-1.510;2024-03-17T05:30:56;10.55;;;4.40;;
21987;SDS011;11158;53.404;-1.510;2024-03-17T05:33:22;13.77;;;4.57;;
21987;SDS011;11158;53.404;-1.510;2024-03-17T05:35:49;11.10;;;4.82;;
21987;SDS011;11158;53.404;-1.510;2024-03-17T05:38:25;10.40;;;4.38;;
21987;SDS011;11158;53.404;-1.510;2024-03-17T05:41:02;7.90;;;3.63;;
21987;SDS011;11158;53.404;-1.510;2024-03-17T05:43:29;10.50;;;4.18;;
21987;SDS011;11158;53.404;-1.510;2024-03-17T05:45:58;9.82;;;3.15;;
21987;SDS011;11158;53.404;-1.510;2024-03-17T05:48:25;9.52;;;3.15;;
21987;SDS011;11158;53.404;-1.510;2024-03-17T05:50:50;6.93;;;2.25;;
21987;SDS011;11158;53.404;-1.510;2024-03-17T05:53:16;7.38;;;2.20;;
21987;SDS011;11158;53.404;-1.510;2024-03-17T05:55:43;3.40;;;1.58;;
21987;SDS011;11158;53.404;-1.510;2024-03-17T05:58:10;3.25;;;1.55;;
21987;SDS011;11158;53.404;-1.510;2024-03-17T06:00:35;3.35;;;1.52;;
21987;SDS011;11158;53.404;-1.510;2024-03-17T06:03:02;3.60;;;1.50;;
21987;SDS011;11158;53.404;-1.510;2024-03-17T06:05:31;2.05;;;1.25;;
21987;SDS011;11158;53.404;-1.510;2024-03-17T06:07:57;3.58;;;1.15;;
21987;SDS011;11158;53.404;-1.510;2024-03-17T06:10:23;4.05;;;1.30;;
21987;SDS011;11158;53.404;-1.510;2024-03-17T06:12:49;2.45;;;1.02;;
21987;SDS011;11158;53.404;-1.510;2024-03-17T06:15:16;2.58;;;1.30;;
21987;SDS011;11158;53.404;-1.510;2024-03-17T06:17:42;2.58;;;1.02;;
21987;SDS011;11158;53.404;-1.510;2024-03-17T06:20:07;1.45;;;0.85;;
21987;SDS011;11158;53.404;-1.510;2024-03-17T06:22:36;1.27;;;0.80;;
21987;SDS011;11158;53.404;-1.510;2024-03-17T06:25:02;2.05;;;0.70;;
21987;SDS011;11158;53.404;-1.510;2024-03-17T06:27:27;0.60;;;0.52;;
21987;SDS011;11158;53.404;-1.510;2024-03-17T06:29:54;3.78;;;0.93;;
21987;SDS011;11158;53.404;-1.510;2024-03-17T06:32:20;0.65;;;0.57;;
21987;SDS011;11158;53.404;-1.510;2024-03-17T06:34:45;0.85;;;0.50;;
21987;SDS011;11158;53.404;-1.510;2024-03-17T06:37:11;0.70;;;0.70;;
21987;SDS011;11158;53.404;-1.510;2024-03-17T06:39:37;0.60;;;0.40;;
21987;SDS011;11158;53.404;-1.510;2024-03-17T06:42:02;0.77;;;0.68;;
21987;SDS011;11158;53.404;-1.510;2024-03-17T06:44:28;1.05;;;0.63;;
21987;SDS011;11158;53.404;-1.510;2024-03-17T06:46:55;2.00;;;0.57;;
21987;SDS011;11158;53.404;-1.510;2024-03-17T06:49:21;0.70;;;0.65;;
21987;SDS011;11158;53.404;-1.510;2024-03-17T06:51:46;0.47;;;0.40;;
21987;SDS011;11158;53.404;-1.510;2024-03-17T06:54:13;2.75;;;0.52;;
21987;SDS011;11158;53.404;-1.510;2024-03-17T06:56:38;1.52;;;0.50;;
21987;SDS011;11158;53.404;-1.510;2024-03-17T06:59:05;1.02;;;0.60;;
21987;SDS011;11158;53.404;-1.510;2024-03-17T07:01:30;1.15;;;0.47;;
21987;SDS011;11158;53.404;-1.510;2024-03-17T07:03:55;1.23;;;0.47;;
21987;SDS011;11158;53.404;-1.510;2024-03-17T07:06:21;0.75;;;0.55;;
21987;SDS011;11158;53.404;-1.510;2024-03-17T07:08:46;3.50;;;1.10;;
21987;SDS011;11158;53.404;-1.510;2024-03-17T07:11:12;2.60;;;1.10;;
21987;SDS011;11158;53.404;-1.510;2024-03-17T07:13:37;2.90;;;0.98;;
21987;SDS011;11158;53.404;-1.510;2024-03-17T07:16:07;1.95;;;0.80;;
21987;SDS011;11158;53.404;-1.510;2024-03-17T07:18:33;2.65;;;1.00;;
21987;SDS011;11158;53.404;-1.510;2024-03-17T07:20:59;2.03;;;0.90;;
21987;SDS011;11158;53.404;-1.510;2024-03-17T07:23:27;1.05;;;0.90;;
21987;SDS011;11158;53.404;-1.510;2024-03-17T07:25:53;2.60;;;1.00;;
21987;SDS011;11158;53.404;-1.510;2024-03-17T07:28:20;2.28;;;1.10;;
21987;SDS011;11158;53.404;-1.510;2024-03-17T07:30:49;2.05;;;1.40;;
21987;SDS011;11158;53.404;-1.510;2024-03-17T07:33:16;1.15;;;1.05;;
21987;SDS011;11158;53.404;-1.510;2024-03-17T07:38:14;4.13;;;1.30;;
21987;SDS011;11158;53.404;-1.510;2024-03-17T07:40:39;1.60;;;1.13;;
21987;SDS011;11158;53.404;-1.510;2024-03-17T07:43:05;2.88;;;1.52;;
21987;SDS011;11158;53.404;-1.510;2024-03-17T07:45:30;4.63;;;1.05;;
21987;SDS011;11158;53.404;-1.510;2024-03-17T07:47:55;2.95;;;1.58;;
21987;SDS011;11158;53.404;-1.510;2024-03-17T07:50:21;2.00;;;1.20;;
21987;SDS011;11158;53.404;-1.510;2024-03-17T07:52:46;2.75;;;1.40;;
21987;SDS011;11158;53.404;-1.510;2024-03-17T07:55:12;2.75;;;1.30;;
21987;SDS011;11158;53.404;-1.510;2024-03-17T07:57:38;2.50;;;0.80;;
21987;SDS011;11158;53.404;-1.510;2024-03-17T08:00:04;2.65;;;0.70;;
21987;SDS011;11158;53.404;-1.510;2024-03-17T08:02:34;1.52;;;0.77;;
21987;SDS011;11158;53.404;-1.510;2024-03-17T08:05:00;1.15;;;0.88;;
21987;SDS011;11158;53.404;-1.510;2024-03-17T08:07:25;1.25;;;0.73;;
21987;SDS011;11158;53.404;-1.510;2024-03-17T08:09:51;1.80;;;1.00;;
21987;SDS011;11158;53.404;-1.510;2024-03-17T08:12:16;2.08;;;0.90;;
21987;SDS011;11158;53.404;-1.510;2024-03-17T08:14:41;1.23;;;0.55;;
21987;SDS011;11158;53.404;-1.510;2024-03-17T08:17:07;1.42;;;0.80;;
21987;SDS011;11158;53.404;-1.510;2024-03-17T08:19:32;1.35;;;0.95;;
21987;SDS011;11158;53.404;-1.510;2024-03-17T08:21:58;2.22;;;1.10;;
21987;SDS011;11158;53.404;-1.510;2024-03-17T08:24:23;1.27;;;1.10;;
21987;SDS011;11158;53.404;-1.510;2024-03-17T08:26:49;1.75;;;1.30;;
21987;SDS011;11158;53.404;-1.510;2024-03-17T08:29:14;3.90;;;2.42;;
21987;SDS011;11158;53.404;-1.510;2024-03-17T08:31:39;2.70;;;1.50;;
21987;SDS011;11158;53.404;-1.510;2024-03-17T08:34:05;2.40;;;1.27;;
21987;SDS011;11158;53.404;-1.510;2024-03-17T08:36:30;3.92;;;1.42;;
21987;SDS011;11158;53.404;-1.510;2024-03-17T08:38:56;2.53;;;1.40;;
21987;SDS011;11158;53.404;-1.510;2024-03-17T08:41:23;2.35;;;1.42;;
21987;SDS011;11158;53.404;-1.510;2024-03-17T08:43:49;1.27;;;0.90;;
21987;SDS011;11158;53.404;-1.510;2024-03-17T08:46:14;1.38;;;1.15;;
21987;SDS011;11158;53.404;-1.510;2024-03-17T08:48:40;1.85;;;0.90;;
21987;SDS011;11158;53.404;-1.510;2024-03-17T08:51:07;2.83;;;0.80;;
21987;SDS011;11158;53.404;-1.510;2024-03-17T08:53:34;1.73;;;0.77;;
21987;SDS011;11158;53.404;-1.510;2024-03-17T08:56:00;1.13;;;0.70;;
21987;SDS011;11158;53.404;-1.510;2024-03-17T08:58:26;0.73;;;0.63;;
21987;SDS011;11158;53.404;-1.510;2024-03-17T09:00:51;0.73;;;0.50;;
21987;SDS011;11158;53.404;-1.510;2024-03-17T09:03:17;0.68;;;0.40;;
21987;SDS011;11158;53.404;-1.510;2024-03-17T09:05:44;0.77;;;0.43;;
21987;SDS011;11158;53.404;-1.510;2024-03-17T09:08:17;1.00;;;0.50;;
21987;SDS011;11158;53.404;-1.510;2024-03-17T09:10:47;0.47;;;0.43;;
21987;SDS011;11158;53.404;-1.510;2024-03-17T09:13:14;1.60;;;0.60;;
21987;SDS011;11158;53.404;-1.510;2024-03-17T09:15:41;2.30;;;0.52;;
21987;SDS011;11158;53.404;-1.510;2024-03-17T09:18:14;0.47;;;0.40;;
21987;SDS011;11158;53.404;-1.510;2024-03-17T09:20:40;0.60;;;0.55;;
21987;SDS011;11158;53.404;-1.510;2024-03-17T09:23:05;2.85;;;0.63;;
21987;SDS011;11158;53.404;-1.510;2024-03-17T09:25:30;1.00;;;0.60;;
21987;SDS011;11158;53.404;-1.510;2024-03-17T09:27:56;1.27;;;0.57;;
21987;SDS011;11158;53.404;-1.510;2024-03-17T09:30:21;0.60;;;0.50;;
21987;SDS011;11158;53.404;-1.510;2024-03-17T09:32:47;0.75;;;0.60;;
21987;SDS011;11158;53.404;-1.510;2024-03-17T09:35:12;0.80;;;0.60;;
21987;SDS011;11158;53.404;-1.510;2024-03-17T09:37:38;0.60;;;0.60;;
21987;SDS011;11158;53.404;-1.510;2024-03-17T09:40:03;1.75;;;0.70;;
21987;SDS011;11158;53.404;-1.510;2024-03-17T09:42:31;0.60;;;0.60;;
21987;SDS011;11158;53.404;-1.510;2024-03-17T09:44:57;0.70;;;0.70;;
21987;SDS011;11158;53.404;-1.510;2024-03-17T09:47:23;0.63;;;0.63;;
21987;SDS011;11158;53.404;-1.510;2024-03-17T09:49:51;0.93;;;0.70;;
21987;SDS011;11158;53.404;-1.510;2024-03-17T09:52:20;0.70;;;0.70;;
21987;SDS011;11158;53.404;-1.510;2024-03-17T09:54:49;1.67;;;0.90;;
21987;SDS011;11158;53.404;-1.510;2024-03-17T09:57:24;1.33;;;1.23;;
21987;SDS011;11158;53.404;-1.510;2024-03-17T09:59:51;1.75;;;1.27;;
21987;SDS011;11158;53.404;-1.510;2024-03-17T10:02:18;1.20;;;1.10;;
21987;SDS011;11158;53.404;-1.510;2024-03-17T10:04:43;0.85;;;0.80;;
21987;SDS011;11158;53.404;-1.510;2024-03-17T10:07:09;2.30;;;0.90;;
21987;SDS011;11158;53.404;-1.510;2024-03-17T10:09:34;0.95;;;0.85;;
21987;SDS011;11158;53.404;-1.510;2024-03-17T10:12:01;1.10;;;1.00;;
21987;SDS011;11158;53.404;-1.510;2024-03-17T10:14:27;0.75;;;0.52;;
21987;SDS011;11158;53.404;-1.510;2024-03-17T10:16:52;1.20;;;0.73;;
21987;SDS011;11158;53.404;-1.510;2024-03-17T10:19:24;0.77;;;0.60;;
21987;SDS011;11158;53.404;-1.510;2024-03-17T10:21:58;0.88;;;0.40;;
21987;SDS011;11158;53.404;-1.510;2024-03-17T10:24:26;2.20;;;0.50;;
21987;SDS011;11158;53.404;-1.510;2024-03-17T10:26:54;0.95;;;0.50;;
21987;SDS011;11158;53.404;-1.510;2024-03-17T10:29:25;0.40;;;0.40;;
21987;SDS011;11158;53.404;-1.510;2024-03-17T10:32:12;0.95;;;0.45;;
21987;SDS011;11158;53.404;-1.510;2024-03-17T10:34:38;0.88;;;0.40;;
21987;SDS011;11158;53.404;-1.510;2024-03-17T10:37:08;0.52;;;0.50;;
21987;SDS011;11158;53.404;-1.510;2024-03-17T10:39:37;0.98;;;0.38;;
21987;SDS011;11158;53.404;-1.510;2024-03-17T10:42:04;1.48;;;0.50;;
21987;SDS011;11158;53.404;-1.510;2024-03-17T10:44:37;0.52;;;0.50;;
21987;SDS011;11158;53.404;-1.510;2024-03-17T10:47:05;1.23;;;0.50;;
21987;SDS011;11158;53.404;-1.510;2024-03-17T10:49:40;1.55;;;0.40;;
21987;SDS011;11158;53.404;-1.510;2024-03-17T10:52:06;1.00;;;0.50;;
21987;SDS011;11158;53.404;-1.510;2024-03-17T10:54:34;0.43;;;0.43;;
21987;SDS011;11158;53.404;-1.510;2024-03-17T10:59:57;1.08;;;0.60;;
21987;SDS011;11158;53.404;-1.510;2024-03-17T11:02:25;0.73;;;0.70;;
21987;SDS011;11158;53.404;-1.510;2024-03-17T11:04:58;0.85;;;0.30;;
21987;SDS011;11158;53.404;-1.510;2024-03-17T11:07:25;1.38;;;0.40;;
21987;SDS011;11158;53.404;-1.510;2024-03-17T11:09:52;1.27;;;0.40;;
21987;SDS011;11158;53.404;-1.510;2024-03-17T11:17:47;2.13;;;0.50;;
21987;SDS011;11158;53.404;-1.510;2024-03-17T11:20:23;0.38;;;0.30;;
21987;SDS011;11158;53.404;-1.510;2024-03-17T11:22:50;0.85;;;0.20;;
21987;SDS011;11158;53.404;-1.510;2024-03-17T11:27:54;1.15;;;0.30;;
21987;SDS011;11158;53.404;-1.510;2024-03-17T11:38:52;1.35;;;0.40;;
21987;SDS011;11158;53.404;-1.510;2024-03-17T11:46:55;0.47;;;0.30;;
21987;SDS011;11158;53.404;-1.510;2024-03-17T11:49:24;0.20;;;0.20;;
21987;SDS011;11158;53.404;-1.510;2024-03-17T11:51:53;0.30;;;0.30;;
21987;SDS011;11158;53.404;-1.510;2024-03-17T11:54:23;0.63;;;0.28;;
21987;SDS011;11158;53.404;-1.510;2024-03-17T11:56:53;0.50;;;0.20;;
21987;SDS011;11158;53.404;-1.510;2024-03-17T11:59:19;1.75;;;0.30;;
21987;SDS011;11158;53.404;-1.510;2024-03-17T12:01:45;0.60;;;0.30;;
21987;SDS011;11158;53.404;-1.510;2024-03-17T12:04:15;0.50;;;0.35;;
21987;SDS011;11158;53.404;-1.510;2024-03-17T12:06:45;1.50;;;0.30;;
21987;SDS011;11158;53.404;-1.510;2024-03-17T12:09:27;0.68;;;0.35;;
21987;SDS011;11158;53.404;-1.510;2024-03-17T12:14:27;1.50;;;0.30;;
21987;SDS011;11158;53.404;-1.510;2024-03-17T12:16:56;0.32;;;0.25;;
21987;SDS011;11158;53.404;-1.510;2024-03-17T12:19:23;0.60;;;0.40;;
21987;SDS011;11158;53.404;-1.510;2024-03-17T12:21:52;0.63;;;0.32;;
21987;SDS011;11158;53.404;-1.510;2024-03-17T12:24:25;2.65;;;0.77;;
21987;SDS011;11158;53.404;-1.510;2024-03-17T12:26:52;0.30;;;0.30;;
21987;SDS011;11158;53.404;-1.510;2024-03-17T12:29:26;1.20;;;0.45;;
21987;SDS011;11158;53.404;-1.510;2024-03-17T12:31:53;0.30;;;0.30;;
21987;SDS011;11158;53.404;-1.510;2024-03-17T12:34:20;0.38;;;0.30;;
21987;SDS011;11158;53.404;-1.510;2024-03-17T12:36:47;0.50;;;0.30;;
21987;SDS011;11158;53.404;-1.510;2024-03-17T12:39:21;0.40;;;0.32;;
21987;SDS011;11158;53.404;-1.510;2024-03-17T12:47:08;0.60;;;0.20;;
21987;SDS011;11158;53.404;-1.510;2024-03-17T12:49:44;3.65;;;0.35;;
21987;SDS011;11158;53.404;-1.510;2024-03-17T12:52:34;0.32;;;0.20;;
21987;SDS011;11158;53.404;-1.510;2024-03-17T12:55:03;0.77;;;0.38;;
21987;SDS011;11158;53.404;-1.510;2024-03-17T12:57:53;0.80;;;0.40;;
21987;SDS011;11158;53.404;-1.510;2024-03-17T13:00:59;0.32;;;0.32;;
21987;SDS011;11158;53.404;-1.510;2024-03-17T13:03:26;1.73;;;0.30;;
21987;SDS011;11158;53.404;-1.510;2024-03-17T13:05:59;0.32;;;0.32;;
21987;SDS011;11158;53.404;-1.510;2024-03-17T13:10:59;1.33;;;0.38;;
21987;SDS011;11158;53.404;-1.510;2024-03-17T13:13:25;0.85;;;0.40;;
21987;SDS011;11158;53.404;-1.510;2024-03-17T13:15:51;0.35;;;0.30;;
21987;SDS011;11158;53.404;-1.510;2024-03-17T13:18:18;2.10;;;0.60;;
21987;SDS011;11158;53.404;-1.510;2024-03-17T13:20:44;1.70;;;0.30;;
21987;SDS011;11158;53.404;-1.510;2024-03-17T13:23:10;1.38;;;0.40;;
21987;SDS011;11158;53.404;-1.510;2024-03-17T13:25:36;0.30;;;0.30;;
21987;SDS011;11158;53.404;-1.510;2024-03-17T13:28:03;0.50;;;0.30;;
21987;SDS011;11158;53.404;-1.510;2024-03-17T13:30:32;0.93;;;0.30;;
21987;SDS011;11158;53.404;-1.510;2024-03-17T13:32:59;1.73;;;0.40;;
21987;SDS011;11158;53.404;-1.510;2024-03-17T13:35:28;0.73;;;0.50;;
21987;SDS011;11158;53.404;-1.510;2024-03-17T13:37:55;1.17;;;0.40;;
21987;SDS011;11158;53.404;-1.510;2024-03-17T13:40:25;1.58;;;0.40;;
21987;SDS011;11158;53.404;-1.510;2024-03-17T13:42:53;1.27;;;0.30;;
21987;SDS011;11158;53.404;-1.510;2024-03-17T13:45:19;2.40;;;0.35;;
21987;SDS011;11158;53.404;-1.510;2024-03-17T13:47:56;2.25;;;0.52;;
21987;SDS011;11158;53.404;-1.510;2024-03-17T13:50:23;1.10;;;0.65;;
21987;SDS011;11158;53.404;-1.510;2024-03-17T13:52:48;0.43;;;0.30;;
21987;SDS011;11158;53.404;-1.510;2024-03-17T13:55:14;0.80;;;0.60;;
21987;SDS011;11158;53.404;-1.510;2024-03-17T13:57:42;0.47;;;0.35;;
21987;SDS011;11158;53.404;-1.510;2024-03-17T14:00:09;2.30;;;0.50;;
21987;SDS011;11158;53.404;-1.510;2024-03-17T14:02:35;0.85;;;0.30;;
21987;SDS011;11158;53.404;-1.510;2024-03-17T14:05:00;1.52;;;0.88;;
21987;SDS011;11158;53.404;-1.510;2024-03-17T14:07:27;0.40;;;0.38;;
21987;SDS011;11158;53.404;-1.510;2024-03-17T14:09:53;0.55;;;0.30;;
21987;SDS011;11158;53.404;-1.510;2024-03-17T14:12:18;0.35;;;0.30;;
21987;SDS011;11158;53.404;-1.510;2024-03-17T14:14:44;1.42;;;0.35;;
21987;SDS011;11158;53.404;-1.510;2024-03-17T14:17:09;1.85;;;0.50;;
21987;SDS011;11158;53.404;-1.510;2024-03-17T14:19:35;1.10;;;0.35;;
21987;SDS011;11158;53.404;-1.510;2024-03-17T14:22:00;0.22;;;0.17;;
21987;SDS011;11158;53.404;-1.510;2024-03-17T14:24:26;1.02;;;0.47;;
21987;SDS011;11158;53.404;-1.510;2024-03-17T14:26:51;0.98;;;0.30;;
21987;SDS011;11158;53.404;-1.510;2024-03-17T14:29:17;0.75;;;0.40;;
21987;SDS011;11158;53.404;-1.510;2024-03-17T14:31:43;0.68;;;0.50;;
21987;SDS011;11158;53.404;-1.510;2024-03-17T14:34:10;0.85;;;0.63;;
21987;SDS011;11158;53.404;-1.510;2024-03-17T14:36:36;0.70;;;0.50;;
21987;SDS011;11158;53.404;-1.510;2024-03-17T14:39:03;1.58;;;0.63;;
21987;SDS011;11158;53.404;-1.510;2024-03-17T14:41:29;1.85;;;0.90;;
21987;SDS011;11158;53.404;-1.510;2024-03-17T14:43:56;0.50;;;0.50;;
21987;SDS011;11158;53.404;-1.510;2024-03-17T14:46:22;0.60;;;0.50;;
21987;SDS011;11158;53.404;-1.510;2024-03-17T14:48:48;0.55;;;0.30;;
21987;SDS011;11158;53.404;-1.510;2024-03-17T14:51:15;0.65;;;0.50;;
21987;SDS011;11158;53.404;-1.510;2024-03-17T14:53:42;0.88;;;0.30;;
21987;SDS011;11158;53.404;-1.510;2024-03-17T14:56:13;0.40;;;0.30;;
21987;SDS011;11158;53.404;-1.510;2024-03-17T14:58:41;0.30;;;0.30;;
21987;SDS011;11158;53.404;-1.510;2024-03-17T15:01:06;1.48;;;0.50;;
21987;SDS011;11158;53.404;-1.510;2024-03-17T15:03:34;0.95;;;0.45;;